sensor_id;sensor_type;location;lat;lon;timestamp;pressure;altitude;pressure_sealevel;temperature;humidity
49342;BME280;35210;41.606;-87.602;2023-02-21T00:01:02;98375.16;;;10.52;51.39
49342;BME280;35210;41.606;-87.602;2023-02-21T00:03:46;98368.50;;;10.48;51.30
49342;BME280;35210;41.606;-87.602;2023-02-21T00:06:33;98371.97;;;10.49;50.99
49342;BME280;35210;41.606;-87.602;2023-02-21T00:09:18;98367.81;;;10.46;52.05
49342;BME280;35210;41.606;-87.602;2023-02-21T00:12:03;98372.41;;;10.44;52.03
49342;BME280;35210;41.606;-87.602;2023-02-21T00:14:49;98374.34;;;10.42;51.90
49342;BME280;35210;41.606;-87.602;2023-02-21T00:17:34;98378.28;;;10.38;51.89
49342;BME280;35210;41.606;-87.602;2023-02-21T00:20:19;98382.88;;;10.36;52.16
49342;BME280;35210;41.606;-87.602;2023-02-21T00:23:05;98382.75;;;10.28;51.77
49342;BME280;35210;41.606;-87.602;2023-02-21T00:25:50;98372.75;;;10.22;52.57
49342;BME280;35210;41.606;-87.602;2023-02-21T00:28:35;98373.28;;;10.16;52.57
49342;BME280;35210;41.606;-87.602;2023-02-21T00:31:20;98376.91;;;10.15;52.15
49342;BME280;35210;41.606;-87.602;2023-02-21T00:34:05;98373.69;;;10.11;52.46
49342;BME280;35210;41.606;-87.602;2023-02-21T00:36:51;98366.22;;;10.07;52.69
49342;BME280;35210;41.606;-87.602;2023-02-21T00:39:38;98366.78;;;10.01;52.26
49342;BME280;35210;41.606;-87.602;2023-02-21T00:42:23;98364.41;;;9.88;52.21
49342;BME280;35210;41.606;-87.602;2023-02-21T00:45:09;98370.81;;;9.76;52.66
49342;BME280;35210;41.606;-87.602;2023-02-21T00:47:54;98369.97;;;9.66;53.07
49342;BME280;35210;41.606;-87.602;2023-02-21T00:50:39;98369.84;;;9.58;53.68
49342;BME280;35210;41.606;-87.602;2023-02-21T00:53:24;98365.00;;;9.53;54.69
49342;BME280;35210;41.606;-87.602;2023-02-21T00:56:10;98368.88;;;9.49;54.81
49342;BME280;35210;41.606;-87.602;2023-02-21T00:58:55;98364.44;;;9.49;54.48
49342;BME280;35210;41.606;-87.602;2023-02-21T01:01:40;98362.63;;;9.40;54.51
49342;BME280;35210;41.606;-87.602;2023-02-21T01:04:25;98356.94;;;9.35;54.47
49342;BME280;35210;41.606;-87.602;2023-02-21T01:07:10;98344.44;;;9.28;54.90
49342;BME280;35210;41.606;-87.602;2023-02-21T01:09:54;98340.25;;;9.15;55.41
49342;BME280;35210;41.606;-87.602;2023-02-21T01:12:42;98334.69;;;9.09;55.61
49342;BME280;35210;41.606;-87.602;2023-02-21T01:15:26;98328.72;;;9.07;55.20
49342;BME280;35210;41.606;-87.602;2023-02-21T01:18:11;98337.72;;;9.04;54.38
49342;BME280;35210;41.606;-87.602;2023-02-21T01:20:56;98343.97;;;9.03;54.36
49342;BME280;35210;41.606;-87.602;2023-02-21T01:23:41;98331.91;;;9.01;54.52
49342;BME280;35210;41.606;-87.602;2023-02-21T01:26:26;98323.88;;;9.02;55.00
49342;BME280;35210;41.606;-87.602;2023-02-21T01:29:12;98320.25;;;9.03;54.31
49342;BME280;35210;41.606;-87.602;2023-02-21T01:31:57;98320.66;;;8.99;54.80
49342;BME280;35210;41.606;-87.602;2023-02-21T01:34:42;98319.00;;;8.98;54.70
49342;BME280;35210;41.606;-87.602;2023-02-21T01:37:27;98320.53;;;9.00;54.47
49342;BME280;35210;41.606;-87.602;2023-02-21T01:40:13;98329.28;;;9.10;54.50
49342;BME280;35210;41.606;-87.602;2023-02-21T01:42:59;98323.06;;;9.11;54.42
49342;BME280;35210;41.606;-87.602;2023-02-21T01:45:48;98319.19;;;9.15;54.44
49342;BME280;35210;41.606;-87.602;2023-02-21T01:48:33;98322.91;;;9.13;54.27
49342;BME280;35210;41.606;-87.602;2023-02-21T01:51:22;98330.69;;;9.14;54.77
49342;BME280;35210;41.606;-87.602;2023-02-21T01:54:09;98322.50;;;9.17;54.38
49342;BME280;35210;41.606;-87.602;2023-02-21T01:56:56;98333.59;;;9.11;54.84
49342;BME280;35210;41.606;-87.602;2023-02-21T01:59:42;98331.66;;;9.13;54.84
49342;BME280;35210;41.606;-87.602;2023-02-21T02:02:36;98334.84;;;9.17;54.74
49342;BME280;35210;41.606;-87.602;2023-02-21T02:05:24;98335.81;;;9.16;54.79
49342;BME280;35210;41.606;-87.602;2023-02-21T02:08:11;98333.59;;;9.11;55.37
49342;BME280;35210;41.606;-87.602;2023-02-21T02:11:07;98332.47;;;9.04;55.55
49342;BME280;35210;41.606;-87.602;2023-02-21T02:14:11;98330.53;;;9.06;55.28
49342;BME280;35210;41.606;-87.602;2023-02-21T02:16:48;98337.47;;;9.07;55.21
49342;BME280;35210;41.606;-87.602;2023-02-21T02:22:52;98332.06;;;9.09;55.37
49342;BME280;35210;41.606;-87.602;2023-02-21T02:28:47;98331.66;;;9.13;55.34
49342;BME280;35210;41.606;-87.602;2023-02-21T02:34:40;98320.28;;;9.13;55.22
49342;BME280;35210;41.606;-87.602;2023-02-21T02:37:19;98317.50;;;9.14;55.24
49342;BME280;35210;41.606;-87.602;2023-02-21T02:39:55;98316.28;;;9.18;55.15
49342;BME280;35210;41.606;-87.602;2023-02-21T02:42:36;98312.53;;;9.11;55.13
49342;BME280;35210;41.606;-87.602;2023-02-21T02:45:12;98315.28;;;9.10;55.16
49342;BME280;35210;41.606;-87.602;2023-02-21T02:47:44;98312.81;;;9.18;55.10
49342;BME280;35210;41.606;-87.602;2023-02-21T02:50:16;98305.59;;;9.10;55.97
49342;BME280;35210;41.606;-87.602;2023-02-21T02:52:51;98305.31;;;9.13;55.91
49342;BME280;35210;41.606;-87.602;2023-02-21T02:55:24;98298.53;;;9.11;55.75
49342;BME280;35210;41.606;-87.602;2023-02-21T02:57:55;98300.06;;;9.13;55.77
49342;BME280;35210;41.606;-87.602;2023-02-21T03:00:24;98298.94;;;9.06;56.38
49342;BME280;35210;41.606;-87.602;2023-02-21T03:03:07;98299.75;;;9.07;56.37
49342;BME280;35210;41.606;-87.602;2023-02-21T03:05:53;98286.47;;;9.08;56.60
49342;BME280;35210;41.606;-87.602;2023-02-21T03:08:30;98285.75;;;9.06;56.46
49342;BME280;35210;41.606;-87.602;2023-02-21T03:11:04;98277.88;;;9.06;56.54
49342;BME280;35210;41.606;-87.602;2023-02-21T03:13:41;98280.09;;;9.11;56.71
49342;BME280;35210;41.606;-87.602;2023-02-21T03:16:15;98264.84;;;9.05;57.16
49342;BME280;35210;41.606;-87.602;2023-02-21T03:18:48;98262.34;;;9.03;56.97
49342;BME280;35210;41.606;-87.602;2023-02-21T03:21:22;98260.41;;;9.05;57.05
49342;BME280;35210;41.606;-87.602;2023-02-21T03:23:54;98264.28;;;9.01;57.21
49342;BME280;35210;41.606;-87.602;2023-02-21T03:26:23;98260.13;;;8.99;57.15
49342;BME280;35210;41.606;-87.602;2023-02-21T03:28:54;98251.09;;;8.92;57.32
49342;BME280;35210;41.606;-87.602;2023-02-21T03:31:27;98256.22;;;8.93;57.57
49342;BME280;35210;41.606;-87.602;2023-02-21T03:33:56;98259.00;;;8.92;57.62
49342;BME280;35210;41.606;-87.602;2023-02-21T03:36:26;98258.19;;;8.91;57.54
49342;BME280;35210;41.606;-87.602;2023-02-21T03:38:54;98250.44;;;8.89;57.97
49342;BME280;35210;41.606;-87.602;2023-02-21T03:41:22;98253.19;;;8.88;57.84
49342;BME280;35210;41.606;-87.602;2023-02-21T03:43:50;98254.03;;;8.88;57.87
49342;BME280;35210;41.606;-87.602;2023-02-21T03:46:18;98255.41;;;8.93;57.96
49342;BME280;35210;41.606;-87.602;2023-02-21T03:48:46;98248.75;;;8.88;57.71
49342;BME280;35210;41.606;-87.602;2023-02-21T03:51:15;98246.28;;;8.87;57.89
49342;BME280;35210;41.606;-87.602;2023-02-21T03:53:44;98251.53;;;8.87;57.85
49342;BME280;35210;41.606;-87.602;2023-02-21T03:56:12;98238.38;;;8.87;57.60
49342;BME280;35210;41.606;-87.602;2023-02-21T03:58:40;98236.56;;;8.87;57.91
49342;BME280;35210;41.606;-87.602;2023-02-21T04:01:08;98236.00;;;8.84;57.94
49342;BME280;35210;41.606;-87.602;2023-02-21T04:03:37;98234.06;;;8.76;57.93
49342;BME280;35210;41.606;-87.602;2023-02-21T04:06:05;98234.19;;;8.75;58.33
49342;BME280;35210;41.606;-87.602;2023-02-21T04:08:33;98235.44;;;8.71;58.50
49342;BME280;35210;41.606;-87.602;2023-02-21T04:11:03;98227.25;;;8.74;58.20
49342;BME280;35210;41.606;-87.602;2023-02-21T04:13:34;98221.56;;;8.69;58.87
49342;BME280;35210;41.606;-87.602;2023-02-21T04:16:02;98220.88;;;8.67;58.73
49342;BME280;35210;41.606;-87.602;2023-02-21T04:18:31;98223.09;;;8.62;58.58
49342;BME280;35210;41.606;-87.602;2023-02-21T04:20:59;98219.63;;;8.61;59.29
49342;BME280;35210;41.606;-87.602;2023-02-21T04:23:27;98218.78;;;8.61;58.87
49342;BME280;35210;41.606;-87.602;2023-02-21T04:25:55;98214.06;;;8.54;59.58
49342;BME280;35210;41.606;-87.602;2023-02-21T04:28:25;98217.78;;;8.52;59.78
49342;BME280;35210;41.606;-87.602;2023-02-21T04:30:53;98215.31;;;8.50;59.65
49342;BME280;35210;41.606;-87.602;2023-02-21T04:33:22;98209.03;;;8.42;60.48
49342;BME280;35210;41.606;-87.602;2023-02-21T04:35:50;98197.69;;;8.41;60.31
49342;BME280;35210;41.606;-87.602;2023-02-21T04:38:18;98197.41;;;8.44;60.50
49342;BME280;35210;41.606;-87.602;2023-02-21T04:40:46;98200.31;;;8.41;60.78
49342;BME280;35210;41.606;-87.602;2023-02-21T04:43:15;98193.25;;;8.42;60.16
49342;BME280;35210;41.606;-87.602;2023-02-21T04:45:44;98192.69;;;8.38;60.50
49342;BME280;35210;41.606;-87.602;2023-02-21T04:48:13;98191.47;;;8.42;60.55
49342;BME280;35210;41.606;-87.602;2023-02-21T04:50:41;98180.25;;;8.40;60.80
49342;BME280;35210;41.606;-87.602;2023-02-21T04:53:09;98183.16;;;8.37;60.94
49342;BME280;35210;41.606;-87.602;2023-02-21T04:55:37;98178.72;;;8.38;60.40
49342;BME280;35210;41.606;-87.602;2023-02-21T04:58:05;98171.91;;;8.35;61.17
49342;BME280;35210;41.606;-87.602;2023-02-21T05:00:34;98167.75;;;8.33;61.31
49342;BME280;35210;41.606;-87.602;2023-02-21T05:03:03;98174.09;;;8.30;61.40
49342;BME280;35210;41.606;-87.602;2023-02-21T05:05:31;98167.16;;;8.29;60.65
49342;BME280;35210;41.606;-87.602;2023-02-21T05:07:59;98165.06;;;8.23;61.77
49342;BME280;35210;41.606;-87.602;2023-02-21T05:10:27;98154.41;;;8.24;61.80
49342;BME280;35210;41.606;-87.602;2023-02-21T05:12:55;98157.75;;;8.17;61.83
49342;BME280;35210;41.606;-87.602;2023-02-21T05:15:23;98156.34;;;8.13;61.96
49342;BME280;35210;41.606;-87.602;2023-02-21T05:17:51;98151.22;;;8.11;62.42
49342;BME280;35210;41.606;-87.602;2023-02-21T05:20:21;98144.19;;;8.12;62.76
49342;BME280;35210;41.606;-87.602;2023-02-21T05:22:49;98151.94;;;8.13;62.71
49342;BME280;35210;41.606;-87.602;2023-02-21T05:25:18;98159.94;;;8.12;62.75
49342;BME280;35210;41.606;-87.602;2023-02-21T05:27:46;98161.06;;;8.09;62.91
49342;BME280;35210;41.606;-87.602;2023-02-21T05:30:16;98158.28;;;8.11;62.96
49342;BME280;35210;41.606;-87.602;2023-02-21T05:32:45;98155.78;;;8.09;62.94
49342;BME280;35210;41.606;-87.602;2023-02-21T05:35:14;98158.28;;;8.11;63.17
49342;BME280;35210;41.606;-87.602;2023-02-21T05:37:44;98152.75;;;8.14;62.71
49342;BME280;35210;41.606;-87.602;2023-02-21T05:40:12;98158.84;;;8.14;63.68
49342;BME280;35210;41.606;-87.602;2023-02-21T05:42:42;98147.50;;;8.14;63.13
49342;BME280;35210;41.606;-87.602;2023-02-21T05:45:10;98138.47;;;8.07;63.50
49342;BME280;35210;41.606;-87.602;2023-02-21T05:47:39;98141.38;;;8.04;64.00
49342;BME280;35210;41.606;-87.602;2023-02-21T05:50:08;98128.38;;;8.02;63.98
49342;BME280;35210;41.606;-87.602;2023-02-21T05:52:37;98124.22;;;8.00;64.03
49342;BME280;35210;41.606;-87.602;2023-02-21T05:55:07;98122.81;;;7.96;64.33
49342;BME280;35210;41.606;-87.602;2023-02-21T05:57:37;98115.47;;;7.89;64.37
49342;BME280;35210;41.606;-87.602;2023-02-21T06:00:06;98102.59;;;7.86;64.60
49342;BME280;35210;41.606;-87.602;2023-02-21T06:02:35;98092.63;;;7.90;65.19
49342;BME280;35210;41.606;-87.602;2023-02-21T06:05:03;98104.25;;;7.87;65.00
49342;BME280;35210;41.606;-87.602;2023-02-21T06:07:31;98110.16;;;7.80;66.20
49342;BME280;35210;41.606;-87.602;2023-02-21T06:09:59;98108.38;;;7.80;66.20
49342;BME280;35210;41.606;-87.602;2023-02-21T06:12:29;98114.59;;;7.79;66.18
49342;BME280;35210;41.606;-87.602;2023-02-21T06:14:57;98122.47;;;7.79;66.30
49342;BME280;35210;41.606;-87.602;2023-02-21T06:17:26;98123.03;;;7.83;66.12
49342;BME280;35210;41.606;-87.602;2023-02-21T06:19:55;98124.13;;;7.80;66.46
49342;BME280;35210;41.606;-87.602;2023-02-21T06:22:23;98123.63;;;7.86;66.09
49342;BME280;35210;41.606;-87.602;2023-02-21T06:24:51;98134.13;;;7.86;66.49
49342;BME280;35210;41.606;-87.602;2023-02-21T06:27:19;98119.72;;;7.81;66.76
49342;BME280;35210;41.606;-87.602;2023-02-21T06:29:49;98110.31;;;7.78;66.81
49342;BME280;35210;41.606;-87.602;2023-02-21T06:32:18;98106.72;;;7.79;66.57
49342;BME280;35210;41.606;-87.602;2023-02-21T06:34:46;98111.84;;;7.81;67.19
49342;BME280;35210;41.606;-87.602;2023-02-21T06:37:14;98117.22;;;7.79;67.05
49342;BME280;35210;41.606;-87.602;2023-02-21T06:39:42;98114.59;;;7.79;67.30
49342;BME280;35210;41.606;-87.602;2023-02-21T06:42:12;98111.41;;;7.76;67.11
49342;BME280;35210;41.606;-87.602;2023-02-21T06:44:42;98124.66;;;7.74;67.59
49342;BME280;35210;41.606;-87.602;2023-02-21T06:47:13;98120.38;;;7.73;67.39
49342;BME280;35210;41.606;-87.602;2023-02-21T06:49:41;98116.91;;;7.73;67.50
49342;BME280;35210;41.606;-87.602;2023-02-21T06:52:10;98112.75;;;7.70;68.20
49342;BME280;35210;41.606;-87.602;2023-02-21T06:54:39;98106.81;;;7.68;68.17
49342;BME280;35210;41.606;-87.602;2023-02-21T06:57:07;98099.06;;;7.67;68.46
49342;BME280;35210;41.606;-87.602;2023-02-21T06:59:35;98098.66;;;7.71;68.14
49342;BME280;35210;41.606;-87.602;2023-02-21T07:02:03;98092.97;;;7.66;68.43
49342;BME280;35210;41.606;-87.602;2023-02-21T07:04:32;98090.06;;;7.69;68.51
49342;BME280;35210;41.606;-87.602;2023-02-21T07:07:00;98082.03;;;7.61;68.69
49342;BME280;35210;41.606;-87.602;2023-02-21T07:09:28;98077.59;;;7.62;68.85
49342;BME280;35210;41.606;-87.602;2023-02-21T07:11:56;98091.97;;;7.57;69.17
49342;BME280;35210;41.606;-87.602;2023-02-21T07:14:24;98077.03;;;7.58;69.35
49342;BME280;35210;41.606;-87.602;2023-02-21T07:16:52;98074.66;;;7.55;69.41
49342;BME280;35210;41.606;-87.602;2023-02-21T07:19:20;98078.25;;;7.54;69.48
49342;BME280;35210;41.606;-87.602;2023-02-21T07:21:50;98073.53;;;7.48;69.75
49342;BME280;35210;41.606;-87.602;2023-02-21T07:24:18;98076.16;;;7.48;69.85
49342;BME280;35210;41.606;-87.602;2023-02-21T07:26:46;98078.09;;;7.46;69.94
49342;BME280;35210;41.606;-87.602;2023-02-21T07:29:15;98068.91;;;7.31;70.51
49342;BME280;35210;41.606;-87.602;2023-02-21T07:31:43;98077.63;;;7.31;70.92
49342;BME280;35210;41.606;-87.602;2023-02-21T07:34:11;98076.09;;;7.29;71.14
49342;BME280;35210;41.606;-87.602;2023-02-21T07:36:40;98074.94;;;7.21;71.39
49342;BME280;35210;41.606;-87.602;2023-02-21T07:39:09;98091.72;;;7.09;72.23
49342;BME280;35210;41.606;-87.602;2023-02-21T07:41:37;98086.75;;;7.06;72.72
49342;BME280;35210;41.606;-87.602;2023-02-21T07:44:05;98090.31;;;7.05;72.67
49342;BME280;35210;41.606;-87.602;2023-02-21T07:46:34;98085.06;;;7.05;72.51
49342;BME280;35210;41.606;-87.602;2023-02-21T07:49:02;98086.34;;;6.90;73.08
49342;BME280;35210;41.606;-87.602;2023-02-21T07:51:30;98073.50;;;6.87;73.87
49342;BME280;35210;41.606;-87.602;2023-02-21T07:53:58;98083.47;;;6.93;73.32
49342;BME280;35210;41.606;-87.602;2023-02-21T07:56:27;98087.56;;;6.86;73.76
49342;BME280;35210;41.606;-87.602;2023-02-21T07:58:55;98102.34;;;6.87;73.81
49342;BME280;35210;41.606;-87.602;2023-02-21T08:01:25;98101.53;;;6.86;74.12
49342;BME280;35210;41.606;-87.602;2023-02-21T08:03:53;98090.75;;;6.69;74.70
49342;BME280;35210;41.606;-87.602;2023-02-21T08:06:23;98091.78;;;6.56;75.17
49342;BME280;35210;41.606;-87.602;2023-02-21T08:08:51;98092.97;;;6.64;74.25
49342;BME280;35210;41.606;-87.602;2023-02-21T08:11:19;98091.09;;;6.54;75.24
49342;BME280;35210;41.606;-87.602;2023-02-21T08:13:49;98103.41;;;6.43;75.48
49342;BME280;35210;41.606;-87.602;2023-02-21T08:16:17;98108.97;;;6.49;76.12
49342;BME280;35210;41.606;-87.602;2023-02-21T08:18:46;98078.09;;;6.53;75.20
49342;BME280;35210;41.606;-87.602;2023-02-21T08:21:16;98096.34;;;6.54;75.78
49342;BME280;35210;41.606;-87.602;2023-02-21T08:23:45;98101.56;;;6.54;75.04
49342;BME280;35210;41.606;-87.602;2023-02-21T08:26:13;98098.94;;;6.54;74.78
49342;BME280;35210;41.606;-87.602;2023-02-21T08:28:42;98117.47;;;6.42;75.51
49342;BME280;35210;41.606;-87.602;2023-02-21T08:31:12;98119.03;;;6.33;75.95
49342;BME280;35210;41.606;-87.602;2023-02-21T08:33:40;98119.75;;;6.35;75.66
49342;BME280;35210;41.606;-87.602;2023-02-21T08:36:09;98115.97;;;6.28;75.54
49342;BME280;35210;41.606;-87.602;2023-02-21T08:38:38;98111.66;;;6.27;75.11
49342;BME280;35210;41.606;-87.602;2023-02-21T08:41:07;98116.22;;;6.25;74.47
49342;BME280;35210;41.606;-87.602;2023-02-21T08:43:36;98130.75;;;6.18;74.25
49342;BME280;35210;41.606;-87.602;2023-02-21T08:46:04;98127.66;;;6.13;74.55
49342;BME280;35210;41.606;-87.602;2023-02-21T08:48:35;98129.69;;;6.20;73.92
49342;BME280;35210;41.606;-87.602;2023-02-21T08:51:04;98127.66;;;6.24;74.04
49342;BME280;35210;41.606;-87.602;2023-02-21T08:53:32;98125.63;;;6.16;73.47
49342;BME280;35210;41.606;-87.602;2023-02-21T08:56:00;98131.84;;;6.15;72.74
49342;BME280;35210;41.606;-87.602;2023-02-21T08:58:28;98141.53;;;5.92;71.89
49342;BME280;35210;41.606;-87.602;2023-02-21T09:00:57;98133.41;;;5.96;72.56
49342;BME280;35210;41.606;-87.602;2023-02-21T09:03:25;98139.59;;;5.94;73.16
49342;BME280;35210;41.606;-87.602;2023-02-21T09:05:55;98144.13;;;6.04;72.84
49342;BME280;35210;41.606;-87.602;2023-02-21T09:08:24;98145.41;;;6.09;72.19
49342;BME280;35210;41.606;-87.602;2023-02-21T09:10:56;98152.94;;;6.03;71.72
49342;BME280;35210;41.606;-87.602;2023-02-21T09:13:25;98161.38;;;5.95;70.42
49342;BME280;35210;41.606;-87.602;2023-02-21T09:15:54;98153.19;;;5.77;67.11
49342;BME280;35210;41.606;-87.602;2023-02-21T09:18:22;98159.38;;;5.65;66.04
49342;BME280;35210;41.606;-87.602;2023-02-21T09:20:52;98162.22;;;5.51;66.00
49342;BME280;35210;41.606;-87.602;2023-02-21T09:23:25;98152.56;;;5.51;64.99
49342;BME280;35210;41.606;-87.602;2023-02-21T09:25:53;98163.03;;;5.51;65.32
49342;BME280;35210;41.606;-87.602;2023-02-21T09:28:23;98156.72;;;5.54;65.84
49342;BME280;35210;41.606;-87.602;2023-02-21T09:30:52;98156.38;;;5.47;66.15
49342;BME280;35210;41.606;-87.602;2023-02-21T09:33:20;98160.72;;;5.24;65.08
49342;BME280;35210;41.606;-87.602;2023-02-21T09:35:48;98161.34;;;5.28;65.70
49342;BME280;35210;41.606;-87.602;2023-02-21T09:38:18;98169.06;;;5.29;63.83
49342;BME280;35210;41.606;-87.602;2023-02-21T09:40:55;98185.41;;;4.98;62.64
49342;BME280;35210;41.606;-87.602;2023-02-21T09:43:29;98188.53;;;5.03;61.80
49342;BME280;35210;41.606;-87.602;2023-02-21T09:46:02;98187.22;;;4.74;61.73
49342;BME280;35210;41.606;-87.602;2023-02-21T09:48:31;98175.81;;;4.75;61.42
49342;BME280;35210;41.606;-87.602;2023-02-21T09:51:03;98186.81;;;4.67;61.44
49342;BME280;35210;41.606;-87.602;2023-02-21T09:53:35;98194.50;;;4.57;62.30
49342;BME280;35210;41.606;-87.602;2023-02-21T09:56:11;98199.50;;;4.60;62.45
49342;BME280;35210;41.606;-87.602;2023-02-21T09:58:42;98188.78;;;4.52;63.42
49342;BME280;35210;41.606;-87.602;2023-02-21T10:01:20;98179.34;;;4.39;63.23
49342;BME280;35210;41.606;-87.602;2023-02-21T10:04:01;98187.09;;;4.27;64.18
49342;BME280;35210;41.606;-87.602;2023-02-21T10:06:45;98183.44;;;4.30;64.34
49342;BME280;35210;41.606;-87.602;2023-02-21T10:09:37;98185.25;;;4.17;63.63
49342;BME280;35210;41.606;-87.602;2023-02-21T10:12:19;98188.28;;;4.11;63.71
49342;BME280;35210;41.606;-87.602;2023-02-21T10:15:15;98200.19;;;4.15;63.77
49342;BME280;35210;41.606;-87.602;2023-02-21T10:17:51;98200.13;;;4.04;64.14
49342;BME280;35210;41.606;-87.602;2023-02-21T10:20:25;98204.81;;;3.99;65.01
49342;BME280;35210;41.606;-87.602;2023-02-21T10:22:54;98195.44;;;3.96;64.39
49342;BME280;35210;41.606;-87.602;2023-02-21T10:25:25;98193.88;;;3.93;64.69
49342;BME280;35210;41.606;-87.602;2023-02-21T10:27:58;98203.50;;;3.80;62.71
49342;BME280;35210;41.606;-87.602;2023-02-21T10:30:31;98218.84;;;3.85;62.00
49342;BME280;35210;41.606;-87.602;2023-02-21T10:33:01;98218.22;;;3.81;61.58
49342;BME280;35210;41.606;-87.602;2023-02-21T10:35:31;98231.72;;;3.62;61.37
49342;BME280;35210;41.606;-87.602;2023-02-21T10:38:01;98230.56;;;3.54;62.56
49342;BME280;35210;41.606;-87.602;2023-02-21T10:40:34;98222.09;;;3.50;62.03
49342;BME280;35210;41.606;-87.602;2023-02-21T10:43:09;98225.88;;;3.59;62.02
49342;BME280;35210;41.606;-87.602;2023-02-21T10:45:44;98228.66;;;3.43;62.50
49342;BME280;35210;41.606;-87.602;2023-02-21T10:48:13;98221.75;;;3.29;63.13
49342;BME280;35210;41.606;-87.602;2023-02-21T10:50:49;98246.38;;;3.25;64.04
49342;BME280;35210;41.606;-87.602;2023-02-21T10:53:30;98249.94;;;3.24;63.97
49342;BME280;35210;41.606;-87.602;2023-02-21T10:56:20;98253.84;;;3.05;64.39
49342;BME280;35210;41.606;-87.602;2023-02-21T10:58:53;98265.97;;;3.18;63.99
49342;BME280;35210;41.606;-87.602;2023-02-21T11:01:32;98278.81;;;2.82;63.67
49342;BME280;35210;41.606;-87.602;2023-02-21T11:04:04;98278.22;;;2.91;62.93
49342;BME280;35210;41.606;-87.602;2023-02-21T11:06:35;98288.47;;;2.94;61.88
49342;BME280;35210;41.606;-87.602;2023-02-21T11:09:28;98305.56;;;2.98;61.45
49342;BME280;35210;41.606;-87.602;2023-02-21T11:12:03;98306.09;;;3.03;61.29
49342;BME280;35210;41.606;-87.602;2023-02-21T11:14:33;98301.88;;;2.88;60.35
49342;BME280;35210;41.606;-87.602;2023-02-21T11:17:10;98306.84;;;2.78;61.14
49342;BME280;35210;41.606;-87.602;2023-02-21T11:19:45;98324.72;;;2.84;61.20
49342;BME280;35210;41.606;-87.602;2023-02-21T11:22:14;98318.50;;;2.73;61.47
49342;BME280;35210;41.606;-87.602;2023-02-21T11:24:49;98344.47;;;2.74;61.84
49342;BME280;35210;41.606;-87.602;2023-02-21T11:27:19;98335.63;;;2.77;61.45
49342;BME280;35210;41.606;-87.602;2023-02-21T11:29:50;98346.78;;;2.79;60.33
49342;BME280;35210;41.606;-87.602;2023-02-21T11:32:26;98353.03;;;2.76;60.24
49342;BME280;35210;41.606;-87.602;2023-02-21T11:35:14;98365.81;;;2.67;58.14
49342;BME280;35210;41.606;-87.602;2023-02-21T11:37:51;98358.81;;;2.53;57.12
49342;BME280;35210;41.606;-87.602;2023-02-21T11:40:40;98364.59;;;2.58;57.10
49342;BME280;35210;41.606;-87.602;2023-02-21T11:43:20;98367.03;;;2.47;56.19
49342;BME280;35210;41.606;-87.602;2023-02-21T11:46:01;98373.63;;;2.38;54.68
49342;BME280;35210;41.606;-87.602;2023-02-21T11:48:33;98366.38;;;2.43;55.06
49342;BME280;35210;41.606;-87.602;2023-02-21T11:51:05;98359.00;;;2.50;53.45
49342;BME280;35210;41.606;-87.602;2023-02-21T11:53:39;98357.91;;;2.40;53.65
49342;BME280;35210;41.606;-87.602;2023-02-21T11:56:18;98371.94;;;2.37;53.38
49342;BME280;35210;41.606;-87.602;2023-02-21T11:58:53;98379.03;;;2.35;53.78
49342;BME280;35210;41.606;-87.602;2023-02-21T12:01:27;98392.78;;;2.23;53.65
49342;BME280;35210;41.606;-87.602;2023-02-21T12:04:12;98391.66;;;1.98;54.46
49342;BME280;35210;41.606;-87.602;2023-02-21T12:06:47;98391.09;;;1.93;55.01
49342;BME280;35210;41.606;-87.602;2023-02-21T12:09:22;98414.13;;;1.85;55.76
49342;BME280;35210;41.606;-87.602;2023-02-21T12:12:03;98408.03;;;1.71;56.95
49342;BME280;35210;41.606;-87.602;2023-02-21T12:15:05;98417.78;;;1.67;56.63
49342;BME280;35210;41.606;-87.602;2023-02-21T12:17:58;98418.88;;;1.63;56.79
49342;BME280;35210;41.606;-87.602;2023-02-21T12:20:45;98430.03;;;1.65;57.99
49342;BME280;35210;41.606;-87.602;2023-02-21T12:23:36;98437.31;;;1.44;58.87
49342;BME280;35210;41.606;-87.602;2023-02-21T12:26:22;98452.88;;;1.60;58.26
49342;BME280;35210;41.606;-87.602;2023-02-21T12:29:05;98457.75;;;1.50;58.89
49342;BME280;35210;41.606;-87.602;2023-02-21T12:31:50;98451.63;;;1.51;58.76
49342;BME280;35210;41.606;-87.602;2023-02-21T12:34:35;98452.59;;;1.35;57.59
49342;BME280;35210;41.606;-87.602;2023-02-21T12:37:16;98482.13;;;1.34;57.73
49342;BME280;35210;41.606;-87.602;2023-02-21T12:39:57;98493.38;;;1.34;55.89
49342;BME280;35210;41.606;-87.602;2023-02-21T12:42:57;98519.19;;;1.21;54.87
49342;BME280;35210;41.606;-87.602;2023-02-21T12:45:54;98518.41;;;1.04;55.09
49342;BME280;35210;41.606;-87.602;2023-02-21T12:48:30;98511.16;;;0.93;55.68
49342;BME280;35210;41.606;-87.602;2023-02-21T12:51:10;98511.97;;;0.78;55.50
49342;BME280;35210;41.606;-87.602;2023-02-21T12:53:44;98529.38;;;0.93;55.74
49342;BME280;35210;41.606;-87.602;2023-02-21T12:56:18;98534.19;;;0.83;56.20
49342;BME280;35210;41.606;-87.602;2023-02-21T12:58:51;98526.47;;;0.82;56.40
49342;BME280;35210;41.606;-87.602;2023-02-21T13:01:25;98532.00;;;0.76;56.95
49342;BME280;35210;41.606;-87.602;2023-02-21T13:04:10;98549.78;;;0.83;57.23
49342;BME280;35210;41.606;-87.602;2023-02-21T13:06:47;98548.63;;;0.89;57.20
49342;BME280;35210;41.606;-87.602;2023-02-21T13:09:27;98565.22;;;0.86;56.76
49342;BME280;35210;41.606;-87.602;2023-02-21T13:12:03;98568.72;;;0.70;56.20
49342;BME280;35210;41.606;-87.602;2023-02-21T13:14:40;98580.78;;;0.71;55.09
49342;BME280;35210;41.606;-87.602;2023-02-21T13:17:10;98588.88;;;0.47;53.10
49342;BME280;35210;41.606;-87.602;2023-02-21T13:19:42;98609.75;;;0.63;52.62
49342;BME280;35210;41.606;-87.602;2023-02-21T13:25:23;98636.56;;;0.46;52.26
49342;BME280;35210;41.606;-87.602;2023-02-21T13:28:00;98635.94;;;0.41;52.26
49342;BME280;35210;41.606;-87.602;2023-02-21T13:30:38;98634.72;;;0.48;51.72
49342;BME280;35210;41.606;-87.602;2023-02-21T13:33:19;98630.69;;;0.60;52.64
49342;BME280;35210;41.606;-87.602;2023-02-21T13:35:50;98628.97;;;0.76;50.11
49342;BME280;35210;41.606;-87.602;2023-02-21T13:38:20;98641.63;;;0.67;49.49
49342;BME280;35210;41.606;-87.602;2023-02-21T13:40:53;98666.00;;;0.64;48.08